KOZR/OZR METAR and TAF weather

Enter ICAO airport designator
Station Type Date Time Source
KOZR METAR 2021/07/28 04:17 UTC NOAA

KOZR 280417Z AUTO 00000KT 10SM CLR 24/24 A3002 RMK AO2 SLP165


Station Type Date Time Source
KOZR Decoded METAR 2021/07/28 04:17 UTC NOAA

Cairns Army Air Field / Ozark, AL, United States (KOZR) 31-17N 085-43W
Jul 28, 2021 - 12:17 AM EDT / 2021.07.28 0417 UTC
Wind: Calm:0
Visibility: 10 mile(s):0
Sky conditions: clear
Temperature: 75 F (24 C)
Dew Point: 75 F (24 C)
Relative Humidity: 100%
Pressure (altimeter): 30.02 in. Hg (1016 hPa)
ob: KOZR 280417Z AUTO 00000KT 10SM CLR 24/24 A3002 RMK AO2 SLP165
cycle: 4

Station Type Date Time Source
KOZR TAF 2021/07/27 16:48 UTC NOAA

TAF TAF KOZR 271600Z 2716/2822 30009KT 9999 VCTS SCT035CB BKN050 BKN100 QNH2990INS
TEMPO 2720/2724 VRB12G22KT 3200 TSRA SCT020 BKN030CB OVC050
BECMG 2803/2804 19006KT 9999 NSW SCT040 SCT120 BKN250 QNH2994INS
TEMPO 2810/2813 8000 BR SCT020
BECMG 2818/2819 04009KT 9999 VCTS SCT030 BKN040CB QNH2996INS TX33/2720Z TN23/2811Z

Example: see airport list